Time;durP1;ratioP1;P1;durP2;ratioP2;P2;SDS_P1;SDS_P2;PMS_P1;PMS_P2;Temp;Humidity;BMP_temperature;BMP_pressure;BME280_temperature;BME280_humidity;BME280_pressure;Samples;Min_cycle;Max_cycle;Signal;HPM_P1;HPM_P2
2022/03/19 00:00:25;;;;;;;;;;;;;;;;;;1035138;28;941;-38
2022/03/19 00:00:55;;;;;;;;;;;;;;;;;;1034978;28;954;-39
2022/03/19 00:01:26;;;;;;;;;;;;;;;;;;1035190;28;910;-42
2022/03/19 00:01:57;;;;;;;;;;;;;;;;;;1034935;28;831;-40
2022/03/19 00:02:27;;;;;;;;;;;;;;;;;;1035126;28;870;-38
2022/03/19 00:02:57;;;;;;;;;;;;;;;;;;1035021;28;906;-40
2022/03/19 00:03:28;;;;;;;;;;;;;;;;;;1035226;28;823;-40
2022/03/19 00:03:59;;;;;;;;;;;;;;;;;;1035061;28;867;-40
2022/03/19 00:04:29;;;;;;;;;;;;;;;;;;1035774;28;854;-39
2022/03/19 00:04:59;;;;;;;;;;;;;;;;;;1035278;28;898;-40
2022/03/19 00:05:30;;;;;;;;;;;;;;;;;;1036177;28;791;-37
2022/03/19 00:06:00;;;;;;;;;;;;;;;;;;1035862;28;1629;-37
2022/03/19 00:06:32;;;;;;;;;;;;;;;;;;1035767;28;956;-39
2022/03/19 00:07:03;;;;;;;;;;;;;;;;;;1035495;28;819;-39
2022/03/19 00:07:35;;;;;;;;;;;;;;;;;;1035669;28;878;-39
2022/03/19 00:08:05;;;;;;;;;;;;;;;;;;1034914;28;1918;-39
2022/03/19 00:08:36;;;;;;;;;;;;;;;;;;1036017;28;843;-37
2022/03/19 00:09:07;;;;;;;;;;;;;;;;;;1035954;28;954;-39
2022/03/19 00:09:39;;;;;;;;;;;;;;;;;;1036004;28;1020;-38
2022/03/19 00:10:09;;;;;;;;;;;;;;;;;;1035897;28;1489;-38
2022/03/19 00:10:40;;;;;;;;;;;;;;;;;;1035979;28;949;-40
2022/03/19 00:11:10;;;;;;;;;;;;;;;;;;1035849;28;819;-39
2022/03/19 00:11:40;;;;;;;;;;;;;;;;;;1035754;28;875;-39
2022/03/19 00:12:14;;;;;;;;;;;;;;;;;;1035483;28;902;-39
2022/03/19 00:12:44;;;;;;;;;;;;;;;;;;1035469;28;953;-39
2022/03/19 00:13:18;;;;;;;;;;;;;;;;;;278294;28;10000778;-40
2022/03/19 00:14:02;;;;;;;;;;;;;;;;;;781351;28;9999932;-40
2022/03/19 00:14:44;;;;;;;;;;;;;;;;;;6;782;10001047;-41
2022/03/19 00:15:16;;;;;;;;;;;;;;;;;;920656;28;5176;-40
2022/03/19 00:15:47;;;;;;;;;;;;;;;;;;937209;28;4085;-38
2022/03/19 00:16:18;;;;;;;;;;;;;;;;;;1035187;28;1059;-38
2022/03/19 00:16:48;;;;;;;;;;;;;;;;;;1038022;28;961;-39
2022/03/19 00:17:19;;;;;;;;;;;;;;;;;;1037716;28;912;-39
2022/03/19 00:17:49;;;;;;;;;;;;;;;;;;1037809;28;985;-38
2022/03/19 00:18:20;;;;;;;;;;;;;;;;;;1037783;28;870;-37
2022/03/19 00:18:51;;;;;;;;;;;;;;;;;;1037875;28;873;-38
2022/03/19 00:19:21;;;;;;;;;;;;;;;;;;1037814;28;819;-37
2022/03/19 00:19:52;;;;;;;;;;;;;;;;;;1037444;28;818;-39
2022/03/19 00:20:23;;;;;;;;;;;;;;;;;;1038436;28;795;-38
2022/03/19 00:20:53;;;;;;;;;;;;;;;;;;1002114;28;1716;-40
2022/03/19 00:21:25;;;;;;;;;;;;;;;;;;201582;28;10000718;-39
2022/03/19 00:22:12;;;;;;;;;;;;;;;;;;907685;28;10000168;-40
2022/03/19 00:22:52;;;;;;;;;;;;;;;;;;6;783;10001137;-40
2022/03/19 00:23:23;;;;;;;;;;;;;;;;;;160428;28;10000153;-39
2022/03/19 00:24:12;;;;;;;;;;;;;;;;;;636624;28;10000527;-40
2022/03/19 00:24:42;;;;;;;;;;;;;;;;;;6;744;10001176;-35
2022/03/19 00:25:13;;;;;;;;;;;;;;;;;;930707;28;4278;-38
2022/03/19 00:25:45;;;;;;;;;;;;;;;;;;935881;28;6522;-40
2022/03/19 00:26:17;;;;;;;;;;;;;;;;;;935651;28;3708;-34
2022/03/19 00:26:48;;;;;;;;;;;;;;;;;;930052;28;3539;-40
2022/03/19 00:27:19;;;;;;;;;;;;;;;;;;927290;28;3896;-36
2022/03/19 00:27:50;;;;;;;;;;;;;;;;;;1003787;28;3603;-39
2022/03/19 00:28:20;;;;;;;;;;;;;;;;;;1034078;28;1938;-40
2022/03/19 00:28:51;;;;;;;;;;;;;;;;;;1035621;28;1196;-38
2022/03/19 00:29:21;;;;;;;;;;;;;;;;;;1031450;28;863;-39
2022/03/19 00:29:52;;;;;;;;;;;;;;;;;;1031797;28;822;-39
2022/03/19 00:30:22;;;;;;;;;;;;;;;;;;1031441;28;938;-38
2022/03/19 00:30:53;;;;;;;;;;;;;;;;;;1035852;28;1077;-39
2022/03/19 00:31:23;;;;;;;;;;;;;;;;;;1039743;28;1179;-39
2022/03/19 00:31:54;;;;;;;;;;;;;;;;;;1040176;28;949;-39
2022/03/19 00:32:24;;;;;;;;;;;;;;;;;;1039940;28;1331;-39
2022/03/19 00:32:54;;;;;;;;;;;;;;;;;;1039922;28;815;-38
2022/03/19 00:33:25;;;;;;;;;;;;;;;;;;1040100;28;981;-39
2022/03/19 00:33:56;;;;;;;;;;;;;;;;;;1040144;28;824;-39
2022/03/19 00:34:26;;;;;;;;;;;;;;;;;;1039902;28;954;-39
2022/03/19 00:34:56;;;;;;;;;;;;;;;;;;1039631;28;827;-39
2022/03/19 00:35:26;;;;;;;;;;;;;;;;;;1040027;28;953;-40
2022/03/19 00:35:57;;;;;;;;;;;;;;;;;;1040172;28;859;-39
2022/03/19 00:36:27;;;;;;;;;;;;;;;;;;1039981;28;1000;-38
2022/03/19 00:36:58;;;;;;;;;;;;;;;;;;1040112;28;850;-39
2022/03/19 00:37:28;;;;;;;;;;;;;;;;;;1040101;28;858;-38
2022/03/19 00:37:59;;;;;;;;;;;;;;;;;;1039876;28;874;-39
2022/03/19 00:38:29;;;;;;;;;;;;;;;;;;1039927;28;902;-37
2022/03/19 00:39:00;;;;;;;;;;;;;;;;;;1040186;28;731;-38
2022/03/19 00:39:30;;;;;;;;;;;;;;;;;;1040003;28;775;-38
2022/03/19 00:40:01;;;;;;;;;;;;;;;;;;1040081;28;960;-39
2022/03/19 00:40:33;;;;;;;;;;;;;;;;;;1040038;28;799;-37
2022/03/19 00:41:03;;;;;;;;;;;;;;;;;;1040064;28;531;-38
2022/03/19 00:41:33;;;;;;;;;;;;;;;;;;1039912;28;1614;-38
2022/03/19 00:42:04;;;;;;;;;;;;;;;;;;1043787;28;1610;-37
2022/03/19 00:42:36;;;;;;;;;;;;;;;;;;1042390;28;1750;-39
2022/03/19 00:43:06;;;;;;;;;;;;;;;;;;1045812;28;833;-38
2022/03/19 00:43:37;;;;;;;;;;;;;;;;;;1048040;28;949;-38
2022/03/19 00:44:07;;;;;;;;;;;;;;;;;;1043930;28;1859;-39
2022/03/19 00:44:38;;;;;;;;;;;;;;;;;;1047345;28;945;-38
2022/03/19 00:45:08;;;;;;;;;;;;;;;;;;1048432;28;917;-39
2022/03/19 00:45:39;;;;;;;;;;;;;;;;;;1048277;28;944;-38
2022/03/19 00:46:10;;;;;;;;;;;;;;;;;;1048318;28;841;-38
2022/03/19 00:46:43;;;;;;;;;;;;;;;;;;1048091;28;795;-38
2022/03/19 00:47:13;;;;;;;;;;;;;;;;;;1048213;28;1149;-38
2022/03/19 00:47:43;;;;;;;;;;;;;;;;;;1047783;28;1922;-38
2022/03/19 00:48:15;;;;;;;;;;;;;;;;;;1044057;28;1913;-38
2022/03/19 00:48:45;;;;;;;;;;;;;;;;;;1044058;28;894;-38
2022/03/19 00:49:16;;;;;;;;;;;;;;;;;;1044068;28;828;-38
2022/03/19 00:49:46;;;;;;;;;;;;;;;;;;1043596;28;930;-39
2022/03/19 00:50:16;;;;;;;;;;;;;;;;;;1044178;28;822;-38
2022/03/19 00:50:47;;;;;;;;;;;;;;;;;;1044179;28;917;-38
2022/03/19 00:51:17;;;;;;;;;;;;;;;;;;1043950;28;968;-37
2022/03/19 00:51:48;;;;;;;;;;;;;;;;;;1044091;28;867;-39
2022/03/19 00:52:18;;;;;;;;;;;;;;;;;;1044217;28;866;-38
2022/03/19 00:52:48;;;;;;;;;;;;;;;;;;1043964;28;878;-38
2022/03/19 00:53:19;;;;;;;;;;;;;;;;;;1044218;28;890;-39
2022/03/19 00:53:49;;;;;;;;;;;;;;;;;;1044103;28;968;-38
2022/03/19 00:54:19;;;;;;;;;;;;;;;;;;1044147;28;890;-37
2022/03/19 00:54:50;;;;;;;;;;;;;;;;;;1044182;28;878;-38
2022/03/19 00:55:20;;;;;;;;;;;;;;;;;;1044070;28;930;-38
2022/03/19 00:55:50;;;;;;;;;;;;;;;;;;1044078;28;874;-37
2022/03/19 00:56:21;;;;;;;;;;;;;;;;;;1044191;28;1114;-38
2022/03/19 00:56:51;;;;;;;;;;;;;;;;;;1043371;28;917;-38
2022/03/19 00:57:21;;;;;;;;;;;;;;;;;;1044142;28;949;-38
2022/03/19 00:57:52;;;;;;;;;;;;;;;;;;1043964;28;1003;-37
2022/03/19 00:58:22;;;;;;;;;;;;;;;;;;1044140;28;885;-38
2022/03/19 00:58:53;;;;;;;;;;;;;;;;;;1044177;28;934;-38
2022/03/19 00:59:24;;;;;;;;;;;;;;;;;;1044103;28;953;-38
2022/03/19 00:59:55;;;;;;;;;;;;;;;;;;1043998;28;1896;-37
2022/03/19 01:00:26;;;;;;;;;;;;;;;;;;1044190;28;878;-38
2022/03/19 01:00:57;;;;;;;;;;;;;;;;;;1043980;28;914;-39
2022/03/19 01:01:27;;;;;;;;;;;;;;;;;;1044175;28;870;-38
2022/03/19 01:01:57;;;;;;;;;;;;;;;;;;1043886;28;788;-37
2022/03/19 01:02:28;;;;;;;;;;;;;;;;;;1044262;28;847;-38
2022/03/19 01:02:58;;;;;;;;;;;;;;;;;;1044053;28;902;-38
2022/03/19 01:03:28;;;;;;;;;;;;;;;;;;1044138;28;870;-38
2022/03/19 01:04:00;;;;;;;;;;;;;;;;;;1043984;28;862;-38
2022/03/19 01:04:31;;;;;;;;;;;;;;;;;;1043522;28;1287;-38
2022/03/19 01:05:01;;;;;;;;;;;;;;;;;;1043902;28;823;-38
2022/03/19 01:05:31;;;;;;;;;;;;;;;;;;1044365;28;949;-39
2022/03/19 01:06:01;;;;;;;;;;;;;;;;;;1043831;28;786;-38
2022/03/19 01:06:32;;;;;;;;;;;;;;;;;;1044229;28;871;-38
2022/03/19 01:07:02;;;;;;;;;;;;;;;;;;1044006;28;807;-38
2022/03/19 01:07:39;;;;;;;;;;;;;;;;;;1044175;28;886;-38
2022/03/19 01:08:11;;;;;;;;;;;;;;;;;;1043939;28;1906;-37
2022/03/19 01:08:41;;;;;;;;;;;;;;;;;;1044065;28;869;-38
2022/03/19 01:09:12;;;;;;;;;;;;;;;;;;1044150;28;857;-37
2022/03/19 01:09:42;;;;;;;;;;;;;;;;;;1044047;28;1094;-38
2022/03/19 01:10:13;;;;;;;;;;;;;;;;;;1044031;28;819;-38
2022/03/19 01:10:44;;;;;;;;;;;;;;;;;;1044199;28;795;-38
2022/03/19 01:11:14;;;;;;;;;;;;;;;;;;1043991;28;874;-38
2022/03/19 01:11:45;;;;;;;;;;;;;;;;;;1043507;28;961;-37
2022/03/19 01:12:15;;;;;;;;;;;;;;;;;;1043965;28;984;-38
2022/03/19 01:12:46;;;;;;;;;;;;;;;;;;1044125;28;815;-38
2022/03/19 01:13:16;;;;;;;;;;;;;;;;;;1044134;28;834;-38
2022/03/19 01:13:46;;;;;;;;;;;;;;;;;;1044044;28;958;-38
2022/03/19 01:14:17;;;;;;;;;;;;;;;;;;1043865;28;969;-37
2022/03/19 01:14:47;;;;;;;;;;;;;;;;;;1044223;28;918;-39
2022/03/19 01:15:17;;;;;;;;;;;;;;;;;;1043957;28;894;-39
2022/03/19 01:15:48;;;;;;;;;;;;;;;;;;1044069;28;879;-37
2022/03/19 01:16:19;;;;;;;;;;;;;;;;;;1043950;28;826;-38
2022/03/19 01:16:49;;;;;;;;;;;;;;;;;;1044126;28;933;-39
2022/03/19 01:17:20;;;;;;;;;;;;;;;;;;1043964;28;894;-38
2022/03/19 01:17:50;;;;;;;;;;;;;;;;;;1043897;28;925;-38
2022/03/19 01:18:21;;;;;;;;;;;;;;;;;;1043959;28;897;-38
2022/03/19 01:18:51;;;;;;;;;;;;;;;;;;1044042;28;850;-38
2022/03/19 01:19:52;;;;;;;;;;;;;;;;;;1043331;28;1218;-39
2022/03/19 01:20:12;;;;;;;;;;;;;;;;;;1043944;28;1205;-38
2022/03/19 01:20:43;;;;;;;;;;;;;;;;;;1043950;28;957;-38
2022/03/19 01:21:14;;;;;;;;;;;;;;;;;;1044108;28;811;-38
2022/03/19 01:21:44;;;;;;;;;;;;;;;;;;1044018;28;933;-39
2022/03/19 01:22:15;;;;;;;;;;;;;;;;;;1043923;28;815;-38
2022/03/19 01:22:46;;;;;;;;;;;;;;;;;;1044068;28;866;-37
2022/03/19 01:23:16;;;;;;;;;;;;;;;;;;1043809;28;1115;-39
2022/03/19 01:23:47;;;;;;;;;;;;;;;;;;1044167;28;925;-38
2022/03/19 01:24:17;;;;;;;;;;;;;;;;;;1043941;28;826;-38
2022/03/19 01:24:48;;;;;;;;;;;;;;;;;;1044033;28;957;-38
2022/03/19 01:25:19;;;;;;;;;;;;;;;;;;1041636;28;1168;-37
2022/03/19 01:25:49;;;;;;;;;;;;;;;;;;1039898;28;866;-37
2022/03/19 01:26:20;;;;;;;;;;;;;;;;;;1039413;28;834;-39
2022/03/19 01:26:50;;;;;;;;;;;;;;;;;;1039686;28;1009;-39
2022/03/19 01:27:21;;;;;;;;;;;;;;;;;;1039874;28;944;-38
2022/03/19 01:27:51;;;;;;;;;;;;;;;;;;1039874;28;953;-38
2022/03/19 01:28:22;;;;;;;;;;;;;;;;;;1039739;28;1922;-39
2022/03/19 01:28:52;;;;;;;;;;;;;;;;;;1039871;28;899;-38
2022/03/19 01:29:23;;;;;;;;;;;;;;;;;;1039870;28;882;-38
2022/03/19 01:29:53;;;;;;;;;;;;;;;;;;1039945;28;934;-38
2022/03/19 01:30:24;;;;;;;;;;;;;;;;;;1039953;28;815;-38
2022/03/19 01:30:54;;;;;;;;;;;;;;;;;;1039743;28;946;-38
2022/03/19 01:31:26;;;;;;;;;;;;;;;;;;1039916;28;870;-38
2022/03/19 01:31:56;;;;;;;;;;;;;;;;;;1039908;28;850;-37
2022/03/19 01:32:26;;;;;;;;;;;;;;;;;;1039718;28;1308;-38
2022/03/19 01:32:57;;;;;;;;;;;;;;;;;;1039781;28;1004;-39
2022/03/19 01:33:27;;;;;;;;;;;;;;;;;;1039864;28;866;-37
2022/03/19 01:33:59;;;;;;;;;;;;;;;;;;1039228;28;1619;-38
2022/03/19 01:34:30;;;;;;;;;;;;;;;;;;1040008;28;843;-38
2022/03/19 01:35:01;;;;;;;;;;;;;;;;;;1039723;28;804;-37
2022/03/19 01:35:31;;;;;;;;;;;;;;;;;;1039983;28;914;-38
2022/03/19 01:36:02;;;;;;;;;;;;;;;;;;1039876;28;862;-38
2022/03/19 01:36:32;;;;;;;;;;;;;;;;;;1040937;28;1664;-38
2022/03/19 01:37:03;;;;;;;;;;;;;;;;;;1044051;28;1020;-38
2022/03/19 01:37:33;;;;;;;;;;;;;;;;;;1043855;28;826;-39
2022/03/19 01:38:04;;;;;;;;;;;;;;;;;;1043844;28;994;-38
2022/03/19 01:38:37;;;;;;;;;;;;;;;;;;1044050;28;945;-38
2022/03/19 01:39:07;;;;;;;;;;;;;;;;;;1043905;28;870;-38
2022/03/19 01:39:38;;;;;;;;;;;;;;;;;;1043981;28;894;-38
2022/03/19 01:40:09;;;;;;;;;;;;;;;;;;1043952;28;933;-38
2022/03/19 01:40:40;;;;;;;;;;;;;;;;;;1044078;28;826;-38
2022/03/19 01:41:10;;;;;;;;;;;;;;;;;;1043458;28;889;-38
2022/03/19 01:41:41;;;;;;;;;;;;;;;;;;1043704;28;938;-38
2022/03/19 01:42:11;;;;;;;;;;;;;;;;;;1044063;28;1011;-38
2022/03/19 01:42:43;;;;;;;;;;;;;;;;;;1043882;28;965;-37
2022/03/19 01:43:13;;;;;;;;;;;;;;;;;;1043916;28;873;-38
2022/03/19 01:43:43;;;;;;;;;;;;;;;;;;1043903;28;922;-37
2022/03/19 01:44:20;;;;;;;;;;;;;;;;;;1043831;28;838;-38
2022/03/19 01:44:52;;;;;;;;;;;;;;;;;;1043962;28;905;-38
2022/03/19 01:45:23;;;;;;;;;;;;;;;;;;1044015;28;870;-38
2022/03/19 01:45:53;;;;;;;;;;;;;;;;;;1043704;28;793;-39
2022/03/19 01:46:24;;;;;;;;;;;;;;;;;;1044139;28;790;-37
2022/03/19 01:46:58;;;;;;;;;;;;;;;;;;1043828;28;889;-37
2022/03/19 01:47:29;;;;;;;;;;;;;;;;;;1039887;28;890;-38
2022/03/19 01:47:59;;;;;;;;;;;;;;;;;;1039567;28;842;-39
2022/03/19 01:48:30;;;;;;;;;;;;;;;;;;1039537;28;1902;-38
2022/03/19 01:49:01;;;;;;;;;;;;;;;;;;1039390;28;858;-38
2022/03/19 01:49:31;;;;;;;;;;;;;;;;;;1039993;28;870;-39
2022/03/19 01:50:03;;;;;;;;;;;;;;;;;;1039530;28;570;-36
2022/03/19 01:50:34;;;;;;;;;;;;;;;;;;1039805;28;1017;-38
2022/03/19 01:51:04;;;;;;;;;;;;;;;;;;1039839;28;799;-38
2022/03/19 01:51:36;;;;;;;;;;;;;;;;;;1039812;28;930;-38
2022/03/19 01:52:07;;;;;;;;;;;;;;;;;;1039834;28;910;-39
2022/03/19 01:52:37;;;;;;;;;;;;;;;;;;1039677;28;942;-37
2022/03/19 01:53:08;;;;;;;;;;;;;;;;;;1039876;28;890;-38
2022/03/19 01:53:38;;;;;;;;;;;;;;;;;;1039736;28;1355;-38
2022/03/19 01:54:09;;;;;;;;;;;;;;;;;;1039699;28;791;-38
2022/03/19 01:54:41;;;;;;;;;;;;;;;;;;1039836;28;827;-38
2022/03/19 01:55:12;;;;;;;;;;;;;;;;;;1039774;28;851;-38
2022/03/19 01:55:42;;;;;;;;;;;;;;;;;;1039718;28;1036;-38
2022/03/19 01:56:13;;;;;;;;;;;;;;;;;;1039095;28;827;-38
2022/03/19 01:56:44;;;;;;;;;;;;;;;;;;1039867;28;858;-38
2022/03/19 01:57:19;;;;;;;;;;;;;;;;;;1039287;28;1275;-38
2022/03/19 01:57:49;;;;;;;;;;;;;;;;;;1039287;28;794;-39
2022/03/19 01:58:20;;;;;;;;;;;;;;;;;;1039382;28;894;-38
2022/03/19 01:58:50;;;;;;;;;;;;;;;;;;1039614;28;1023;-37
2022/03/19 01:59:23;;;;;;;;;;;;;;;;;;1039698;28;850;-38
2022/03/19 01:59:56;;;;;;;;;;;;;;;;;;1039751;28;775;-37
2022/03/19 02:00:28;;;;;;;;;;;;;;;;;;1039805;28;854;-38
2022/03/19 02:00:58;;;;;;;;;;;;;;;;;;1039862;28;799;-38
2022/03/19 02:01:29;;;;;;;;;;;;;;;;;;1039708;28;843;-38
2022/03/19 02:02:03;;;;;;;;;;;;;;;;;;1039682;28;978;-38
2022/03/19 02:02:35;;;;;;;;;;;;;;;;;;1039678;28;1116;-38
2022/03/19 02:03:06;;;;;;;;;;;;;;;;;;1039733;28;779;-38
2022/03/19 02:03:36;;;;;;;;;;;;;;;;;;1039196;28;989;-38
2022/03/19 02:04:08;;;;;;;;;;;;;;;;;;1039755;28;926;-38
2022/03/19 02:04:39;;;;;;;;;;;;;;;;;;1039747;28;1024;-38
2022/03/19 02:05:10;;;;;;;;;;;;;;;;;;1039660;28;922;-37
2022/03/19 02:05:41;;;;;;;;;;;;;;;;;;1039891;28;1067;-38
2022/03/19 02:06:11;;;;;;;;;;;;;;;;;;1039547;28;948;-38
2022/03/19 02:06:43;;;;;;;;;;;;;;;;;;1039860;28;843;-39
2022/03/19 02:07:13;;;;;;;;;;;;;;;;;;1039528;28;998;-37
2022/03/19 02:07:44;;;;;;;;;;;;;;;;;;1039828;28;898;-39
2022/03/19 02:08:17;;;;;;;;;;;;;;;;;;1039500;28;1973;-38
2022/03/19 02:08:48;;;;;;;;;;;;;;;;;;1039614;28;894;-38
2022/03/19 02:09:18;;;;;;;;;;;;;;;;;;1039768;28;901;-39
2022/03/19 02:09:49;;;;;;;;;;;;;;;;;;1039728;28;929;-38
2022/03/19 02:10:20;;;;;;;;;;;;;;;;;;1039702;28;1362;-38
2022/03/19 02:10:50;;;;;;;;;;;;;;;;;;1039092;28;837;-38
2022/03/19 02:11:20;;;;;;;;;;;;;;;;;;1039601;28;775;-37
2022/03/19 02:11:51;;;;;;;;;;;;;;;;;;1039856;28;772;-37
2022/03/19 02:12:21;;;;;;;;;;;;;;;;;;1039691;28;783;-38
2022/03/19 02:12:53;;;;;;;;;;;;;;;;;;1039712;28;815;-36
2022/03/19 02:13:23;;;;;;;;;;;;;;;;;;1039720;28;704;-38
2022/03/19 02:13:53;;;;;;;;;;;;;;;;;;1039629;28;902;-37
2022/03/19 02:14:24;;;;;;;;;;;;;;;;;;1039809;28;894;-38
2022/03/19 02:14:57;;;;;;;;;;;;;;;;;;1039755;28;869;-38
2022/03/19 02:15:27;;;;;;;;;;;;;;;;;;1039583;28;917;-38
2022/03/19 02:15:58;;;;;;;;;;;;;;;;;;1039914;28;981;-38
2022/03/19 02:16:29;;;;;;;;;;;;;;;;;;1039595;28;949;-38
2022/03/19 02:17:01;;;;;;;;;;;;;;;;;;1039709;28;1065;-38
2022/03/19 02:17:31;;;;;;;;;;;;;;;;;;1039626;28;842;-38
2022/03/19 02:18:02;;;;;;;;;;;;;;;;;;1039604;28;810;-38
2022/03/19 02:18:33;;;;;;;;;;;;;;;;;;1039000;28;925;-38
2022/03/19 02:19:03;;;;;;;;;;;;;;;;;;1039317;28;886;-38
2022/03/19 02:19:45;;;;;;;;;;;;;;;;;;1039258;28;867;-38
2022/03/19 02:20:15;;;;;;;;;;;;;;;;;;1039222;28;993;-39
2022/03/19 02:20:45;;;;;;;;;;;;;;;;;;1039590;28;930;-37
2022/03/19 02:21:16;;;;;;;;;;;;;;;;;;1039605;28;945;-38
2022/03/19 02:21:48;;;;;;;;;;;;;;;;;;1039695;28;981;-39
2022/03/19 02:22:18;;;;;;;;;;;;;;;;;;1039784;28;838;-37
2022/03/19 02:25:35;;;;;;;;;;;;;;;;;;1030167;28;961;-39
2022/03/19 02:26:06;;;;;;;;;;;;;;;;;;1030562;28;846;-38
2022/03/19 02:26:40;;;;;;;;;;;;;;;;;;1031001;28;886;-37
2022/03/19 02:27:10;;;;;;;;;;;;;;;;;;1030759;28;957;-37
2022/03/19 02:27:41;;;;;;;;;;;;;;;;;;1035290;28;1271;-39
2022/03/19 02:28:12;;;;;;;;;;;;;;;;;;1034990;28;1914;-36
2022/03/19 02:28:43;;;;;;;;;;;;;;;;;;1035212;28;910;-37
2022/03/19 02:29:13;;;;;;;;;;;;;;;;;;1035326;28;926;-38
2022/03/19 02:29:43;;;;;;;;;;;;;;;;;;1035463;28;732;-38
2022/03/19 02:30:15;;;;;;;;;;;;;;;;;;1035574;28;895;-38
2022/03/19 02:30:45;;;;;;;;;;;;;;;;;;1035625;28;942;-38
2022/03/19 02:31:16;;;;;;;;;;;;;;;;;;1035531;28;910;-38
2022/03/19 02:31:46;;;;;;;;;;;;;;;;;;1035437;28;1407;-38
2022/03/19 02:32:17;;;;;;;;;;;;;;;;;;1035459;28;1265;-35
2022/03/19 02:32:49;;;;;;;;;;;;;;;;;;1035544;28;934;-36
2022/03/19 02:33:19;;;;;;;;;;;;;;;;;;1034924;28;787;-38
2022/03/19 02:33:50;;;;;;;;;;;;;;;;;;1035472;28;803;-39
2022/03/19 02:34:21;;;;;;;;;;;;;;;;;;1035634;28;886;-39
2022/03/19 02:34:52;;;;;;;;;;;;;;;;;;1035550;28;917;-38
2022/03/19 02:35:22;;;;;;;;;;;;;;;;;;1035544;28;1009;-37
2022/03/19 02:35:53;;;;;;;;;;;;;;;;;;1035614;28;851;-38
2022/03/19 02:36:23;;;;;;;;;;;;;;;;;;1035421;28;803;-37
2022/03/19 02:36:54;;;;;;;;;;;;;;;;;;1035608;28;965;-38
2022/03/19 02:37:24;;;;;;;;;;;;;;;;;;1035631;28;903;-38
2022/03/19 02:37:54;;;;;;;;;;;;;;;;;;1035307;28;827;-38
2022/03/19 02:38:24;;;;;;;;;;;;;;;;;;1035556;28;989;-38
2022/03/19 02:38:55;;;;;;;;;;;;;;;;;;1035563;28;946;-36
2022/03/19 02:39:30;;;;;;;;;;;;;;;;;;1035649;28;846;-37
2022/03/19 02:40:01;;;;;;;;;;;;;;;;;;1035684;28;1650;-38
2022/03/19 02:40:31;;;;;;;;;;;;;;;;;;1034694;28;961;-38
2022/03/19 02:41:04;;;;;;;;;;;;;;;;;;1035692;28;863;-38
2022/03/19 02:41:35;;;;;;;;;;;;;;;;;;1035431;28;917;-38
2022/03/19 02:42:06;;;;;;;;;;;;;;;;;;1035668;28;1028;-38
2022/03/19 02:42:37;;;;;;;;;;;;;;;;;;1035530;28;927;-37
2022/03/19 02:43:07;;;;;;;;;;;;;;;;;;1035497;28;822;-35
2022/03/19 02:43:37;;;;;;;;;;;;;;;;;;1035621;28;977;-38
2022/03/19 02:44:09;;;;;;;;;;;;;;;;;;1035554;28;842;-36
2022/03/19 02:44:40;;;;;;;;;;;;;;;;;;1035411;28;866;-36
2022/03/19 02:45:10;;;;;;;;;;;;;;;;;;1035568;28;990;-36
2022/03/19 02:45:45;;;;;;;;;;;;;;;;;;1035388;28;943;-39
2022/03/19 02:46:15;;;;;;;;;;;;;;;;;;1035554;28;1006;-38
2022/03/19 02:46:47;;;;;;;;;;;;;;;;;;1035444;28;965;-38
2022/03/19 02:47:18;;;;;;;;;;;;;;;;;;1038469;28;1083;-38
2022/03/19 02:47:57;;;;;;;;;;;;;;;;;;1038577;28;985;-35
2022/03/19 02:48:27;;;;;;;;;;;;;;;;;;1039376;28;1987;-37
2022/03/19 02:48:58;;;;;;;;;;;;;;;;;;1039648;28;946;-37
2022/03/19 02:49:28;;;;;;;;;;;;;;;;;;1039528;28;819;-38
2022/03/19 02:49:59;;;;;;;;;;;;;;;;;;1039616;28;799;-37
2022/03/19 02:50:31;;;;;;;;;;;;;;;;;;1039623;28;890;-38
2022/03/19 02:51:01;;;;;;;;;;;;;;;;;;1039467;28;866;-38
2022/03/19 02:51:32;;;;;;;;;;;;;;;;;;1039637;28;806;-35
2022/03/19 02:52:03;;;;;;;;;;;;;;;;;;1039671;28;950;-37
2022/03/19 02:52:33;;;;;;;;;;;;;;;;;;1039300;28;923;-38
2022/03/19 02:53:05;;;;;;;;;;;;;;;;;;1039684;28;838;-38
2022/03/19 02:53:35;;;;;;;;;;;;;;;;;;1039389;28;772;-38
2022/03/19 02:54:06;;;;;;;;;;;;;;;;;;1039721;28;839;-37
2022/03/19 02:54:37;;;;;;;;;;;;;;;;;;1039631;28;945;-37
2022/03/19 02:55:08;;;;;;;;;;;;;;;;;;1038973;28;830;-38
2022/03/19 02:55:39;;;;;;;;;;;;;;;;;;1039386;28;1617;-38
2022/03/19 02:56:09;;;;;;;;;;;;;;;;;;1039216;28;867;-38
2022/03/19 02:56:41;;;;;;;;;;;;;;;;;;1039258;28;811;-37
2022/03/19 02:57:11;;;;;;;;;;;;;;;;;;1039169;28;962;-37
2022/03/19 02:57:41;;;;;;;;;;;;;;;;;;1039086;28;1641;-37
2022/03/19 02:58:12;;;;;;;;;;;;;;;;;;1039490;28;949;-37
2022/03/19 02:58:42;;;;;;;;;;;;;;;;;;1039492;28;855;-36
2022/03/19 02:59:17;;;;;;;;;;;;;;;;;;1039495;28;982;-38
2022/03/19 02:59:47;;;;;;;;;;;;;;;;;;1039404;28;982;-38
2022/03/19 03:00:18;;;;;;;;;;;;;;;;;;1039646;28;887;-38
2022/03/19 03:00:49;;;;;;;;;;;;;;;;;;1039502;28;835;-37
2022/03/19 03:01:20;;;;;;;;;;;;;;;;;;1039602;28;839;-38
2022/03/19 03:01:52;;;;;;;;;;;;;;;;;;1039476;28;795;-38
2022/03/19 03:02:22;;;;;;;;;;;;;;;;;;1039631;28;1907;-38
2022/03/19 03:02:53;;;;;;;;;;;;;;;;;;1038789;28;902;-38
2022/03/19 03:03:23;;;;;;;;;;;;;;;;;;1039677;28;882;-38
2022/03/19 03:03:54;;;;;;;;;;;;;;;;;;1039413;28;870;-38
2022/03/19 03:04:24;;;;;;;;;;;;;;;;;;1039566;28;910;-38
2022/03/19 03:04:54;;;;;;;;;;;;;;;;;;1039435;28;878;-39
2022/03/19 03:05:25;;;;;;;;;;;;;;;;;;1039525;28;953;-38
2022/03/19 03:05:55;;;;;;;;;;;;;;;;;;1039476;28;780;-38
2022/03/19 03:06:26;;;;;;;;;;;;;;;;;;1039584;28;1942;-38
2022/03/19 03:06:57;;;;;;;;;;;;;;;;;;1039424;28;807;-38
2022/03/19 03:07:27;;;;;;;;;;;;;;;;;;1039601;28;958;-39
2022/03/19 03:07:58;;;;;;;;;;;;;;;;;;1039338;28;957;-37
2022/03/19 03:08:28;;;;;;;;;;;;;;;;;;1039411;28;1921;-36
2022/03/19 03:08:58;;;;;;;;;;;;;;;;;;1039602;28;950;-39
2022/03/19 03:09:29;;;;;;;;;;;;;;;;;;1039523;28;917;-38
2022/03/19 03:10:00;;;;;;;;;;;;;;;;;;1038782;28;923;-38
2022/03/19 03:10:31;;;;;;;;;;;;;;;;;;1043291;28;1118;-37
2022/03/19 03:11:01;;;;;;;;;;;;;;;;;;1043527;28;918;-38
2022/03/19 03:11:32;;;;;;;;;;;;;;;;;;1043776;28;820;-38
2022/03/19 03:12:03;;;;;;;;;;;;;;;;;;1043475;28;937;-40
2022/03/19 03:12:33;;;;;;;;;;;;;;;;;;1043759;28;1642;-37
2022/03/19 03:13:04;;;;;;;;;;;;;;;;;;1043580;28;958;-37
2022/03/19 03:13:34;;;;;;;;;;;;;;;;;;1043567;28;931;-38
2022/03/19 03:14:06;;;;;;;;;;;;;;;;;;1043619;28;834;-38
2022/03/19 03:14:36;;;;;;;;;;;;;;;;;;1043685;28;891;-39
2022/03/19 03:15:07;;;;;;;;;;;;;;;;;;1043511;28;914;-37
2022/03/19 03:15:37;;;;;;;;;;;;;;;;;;1043668;28;866;-38
2022/03/19 03:16:08;;;;;;;;;;;;;;;;;;1043489;28;901;-38
2022/03/19 03:16:38;;;;;;;;;;;;;;;;;;1043790;28;945;-37
2022/03/19 03:17:09;;;;;;;;;;;;;;;;;;1043478;28;961;-37
2022/03/19 03:17:39;;;;;;;;;;;;;;;;;;1043004;28;917;-38
2022/03/19 03:18:09;;;;;;;;;;;;;;;;;;1043436;28;898;-38
2022/03/19 03:18:39;;;;;;;;;;;;;;;;;;1043701;28;795;-37
2022/03/19 03:19:11;;;;;;;;;;;;;;;;;;1043505;28;942;-38
2022/03/19 03:19:41;;;;;;;;;;;;;;;;;;1043819;28;945;-37
2022/03/19 03:20:12;;;;;;;;;;;;;;;;;;1043435;28;962;-37
2022/03/19 03:20:43;;;;;;;;;;;;;;;;;;1043686;28;950;-38
2022/03/19 03:21:14;;;;;;;;;;;;;;;;;;1043543;28;827;-36
2022/03/19 03:21:45;;;;;;;;;;;;;;;;;;1043609;28;1008;-38
2022/03/19 03:22:15;;;;;;;;;;;;;;;;;;1043496;28;1225;-38
2022/03/19 03:22:45;;;;;;;;;;;;;;;;;;1043611;28;905;-38
2022/03/19 03:23:16;;;;;;;;;;;;;;;;;;1043660;28;866;-37
2022/03/19 03:23:46;;;;;;;;;;;;;;;;;;1043639;28;945;-38
2022/03/19 03:24:16;;;;;;;;;;;;;;;;;;1043485;28;954;-38
2022/03/19 03:24:46;;;;;;;;;;;;;;;;;;1043084;28;910;-39
2022/03/19 03:25:17;;;;;;;;;;;;;;;;;;1043575;28;1506;-38
2022/03/19 03:25:48;;;;;;;;;;;;;;;;;;1043575;28;941;-38
2022/03/19 03:26:19;;;;;;;;;;;;;;;;;;1043633;28;933;-36
2022/03/19 03:26:49;;;;;;;;;;;;;;;;;;1043505;28;878;-38
2022/03/19 03:27:19;;;;;;;;;;;;;;;;;;1043703;28;890;-38
2022/03/19 03:27:51;;;;;;;;;;;;;;;;;;1043404;28;926;-38
2022/03/19 03:28:22;;;;;;;;;;;;;;;;;;1043583;28;1985;-38
2022/03/19 03:28:52;;;;;;;;;;;;;;;;;;1043597;28;874;-38
2022/03/19 03:29:22;;;;;;;;;;;;;;;;;;1043501;28;1048;-38
2022/03/19 03:29:53;;;;;;;;;;;;;;;;;;1039088;28;807;-38
2022/03/19 03:30:24;;;;;;;;;;;;;;;;;;1039295;28;862;-38
2022/03/19 03:30:54;;;;;;;;;;;;;;;;;;1038904;28;852;-35
2022/03/19 03:31:25;;;;;;;;;;;;;;;;;;1039467;28;898;-37
2022/03/19 03:31:56;;;;;;;;;;;;;;;;;;1043496;28;1284;-38
2022/03/19 03:32:26;;;;;;;;;;;;;;;;;;1042927;28;823;-37
2022/03/19 03:32:56;;;;;;;;;;;;;;;;;;1043629;28;993;-38
2022/03/19 03:33:27;;;;;;;;;;;;;;;;;;1043403;28;934;-38
2022/03/19 03:33:57;;;;;;;;;;;;;;;;;;1043691;28;945;-38
2022/03/19 03:34:28;;;;;;;;;;;;;;;;;;1043524;28;925;-38
2022/03/19 03:34:58;;;;;;;;;;;;;;;;;;1043598;28;895;-37
2022/03/19 03:35:28;;;;;;;;;;;;;;;;;;1043543;28;941;-38
2022/03/19 03:35:59;;;;;;;;;;;;;;;;;;1043557;28;949;-39
2022/03/19 03:36:29;;;;;;;;;;;;;;;;;;1043597;28;795;-38
2022/03/19 03:37:00;;;;;;;;;;;;;;;;;;1043560;28;798;-38
2022/03/19 03:37:30;;;;;;;;;;;;;;;;;;1039166;28;877;-38
2022/03/19 03:38:00;;;;;;;;;;;;;;;;;;1039054;28;782;-39
2022/03/19 03:38:30;;;;;;;;;;;;;;;;;;1039699;28;838;-38
2022/03/19 03:39:01;;;;;;;;;;;;;;;;;;1040052;28;787;-38
2022/03/19 03:39:31;;;;;;;;;;;;;;;;;;1044065;28;894;-39
2022/03/19 03:40:02;;;;;;;;;;;;;;;;;;1044151;28;882;-37
2022/03/19 03:40:33;;;;;;;;;;;;;;;;;;1044494;28;810;-37
2022/03/19 03:41:03;;;;;;;;;;;;;;;;;;1044430;28;972;-39
2022/03/19 03:41:34;;;;;;;;;;;;;;;;;;1044411;28;834;-36